IGO6187 VOHS-VABB
Flight info
| Callsign | IGO6187 |
|---|---|
| Flight time | 1h 11m |
| Altitude | 36000 |
| Route | TAMIV5 APUSU W18 OPAKA EMRAK2A |
| Aircraft | A20N/M-SDE2E3FGHIRWXY/LB1 |
Departure
| Time | 2026-05-07 13:36 |
|---|---|
| Airport | Rajiv Gandhi International Airport (VOHS) |
Arrival
| Time | 2026-05-07 14:48 |
|---|---|
| Airport | Chhatrapati Shivaji Maharaj International Airport (VABB) |
| Time | Latitude | Longitude | Altitude | Speed | Heading |
|---|---|---|---|---|---|
| 2026-05-07 13:03 | 17.23428 | 78.42893 | 1982 ft | 0 kts | 359° |
| 2026-05-07 13:03 | 17.23427 | 78.42893 | 1982 ft | 0 kts | 359° |
| 2026-05-07 13:20 | 17.23418 | 78.42894 | 1982 ft | 2 kts | 358° |
| 2026-05-07 13:20 | 17.23401 | 78.42894 | 1982 ft | 2 kts | 359° |
| 2026-05-07 13:20 | 17.23385 | 78.42894 | 1981 ft | 2 kts | 358° |
| 2026-05-07 13:20 | 17.23368 | 78.42895 | 1982 ft | 2 kts | 358° |
| 2026-05-07 13:21 | 17.23352 | 78.42894 | 1982 ft | 2 kts | 27° |
| 2026-05-07 13:21 | 17.23338 | 78.42884 | 1980 ft | 2 kts | 46° |
| 2026-05-07 13:21 | 17.23330 | 78.42869 | 1983 ft | 2 kts | 86° |
| 2026-05-07 13:21 | 17.23328 | 78.42852 | 1980 ft | 2 kts | 85° |
| 2026-05-07 13:22 | 17.23327 | 78.42836 | 1982 ft | 2 kts | 87° |
| 2026-05-07 13:22 | 17.23327 | 78.42819 | 1981 ft | 2 kts | 89° |
| 2026-05-07 13:22 | 17.23327 | 78.42815 | 1981 ft | 0 kts | 90° |
| 2026-05-07 13:28 | 17.23327 | 78.42817 | 1981 ft | 1 kts | 90° |
| 2026-05-07 13:28 | 17.23326 | 78.42848 | 1982 ft | 8 kts | 90° |
| 2026-05-07 13:28 | 17.23327 | 78.42932 | 1980 ft | 15 kts | 89° |
| 2026-05-07 13:29 | 17.23329 | 78.43061 | 1983 ft | 21 kts | 88° |
| 2026-05-07 13:29 | 17.23298 | 78.43170 | 1979 ft | 9 kts | 161° |
| 2026-05-07 13:29 | 17.23239 | 78.43161 | 1981 ft | 12 kts | 177° |
| 2026-05-07 13:29 | 17.23131 | 78.43169 | 1981 ft | 18 kts | 159° |
| 2026-05-07 13:30 | 17.23086 | 78.43296 | 1979 ft | 22 kts | 89° |
| 2026-05-07 13:30 | 17.23089 | 78.43475 | 1979 ft | 27 kts | 88° |
| 2026-05-07 13:30 | 17.23090 | 78.43702 | 1979 ft | 35 kts | 90° |
| 2026-05-07 13:30 | 17.23096 | 78.43980 | 1980 ft | 40 kts | 89° |
| 2026-05-07 13:31 | 17.23101 | 78.44279 | 1982 ft | 41 kts | 88° |
| 2026-05-07 13:31 | 17.23103 | 78.44580 | 1980 ft | 41 kts | 89° |
| 2026-05-07 13:31 | 17.23108 | 78.44883 | 1982 ft | 42 kts | 89° |
| 2026-05-07 13:31 | 17.23110 | 78.45110 | 1981 ft | 29 kts | 89° |
| 2026-05-07 13:32 | 17.23109 | 78.45273 | 1981 ft | 5 kts | 99° |
| 2026-05-07 13:32 | 17.23084 | 78.45323 | 1982 ft | 11 kts | 134° |
| 2026-05-07 13:32 | 17.23026 | 78.45320 | 1980 ft | 12 kts | 179° |
| 2026-05-07 13:32 | 17.23019 | 78.45320 | 1981 ft | 0 kts | 183° |
| 2026-05-07 13:33 | 17.23010 | 78.45319 | 1981 ft | 3 kts | 183° |
| 2026-05-07 13:34 | 17.22984 | 78.45313 | 1979 ft | 5 kts | 206° |
| 2026-05-07 13:34 | 17.22910 | 78.45258 | 1984 ft | 10 kts | 248° |
| 2026-05-07 13:34 | 17.22907 | 78.45160 | 1981 ft | 18 kts | 270° |
| 2026-05-07 13:35 | 17.22907 | 78.45003 | 1980 ft | 25 kts | 270° |
| 2026-05-07 13:35 | 17.22904 | 78.44795 | 1980 ft | 33 kts | 268° |
| 2026-05-07 13:35 | 17.22897 | 78.44315 | 1982 ft | 97 kts | 269° |
| 2026-05-07 13:35 | 17.22884 | 78.43427 | 1981 ft | 145 kts | 269° |
| 2026-05-07 13:36 | 17.22864 | 78.42236 | 2019 ft | 177 kts | 268° |
| 2026-05-07 13:36 | 17.22866 | 78.40981 | 2512 ft | 169 kts | 271° |
| 2026-05-07 13:36 | 17.22915 | 78.39770 | 2976 ft | 167 kts | 272° |
| 2026-05-07 13:36 | 17.22903 | 78.38545 | 3388 ft | 171 kts | 269° |
| 2026-05-07 13:37 | 17.22860 | 78.37266 | 3669 ft | 184 kts | 269° |
| 2026-05-07 13:37 | 17.22812 | 78.35869 | 3851 ft | 201 kts | 269° |
| 2026-05-07 13:37 | 17.22769 | 78.34331 | 4001 ft | 222 kts | 269° |
| 2026-05-07 13:37 | 17.22835 | 78.32648 | 4185 ft | 242 kts | 279° |
| 2026-05-07 13:38 | 17.23273 | 78.30869 | 4377 ft | 263 kts | 288° |
| 2026-05-07 13:38 | 17.23838 | 78.28997 | 4657 ft | 282 kts | 288° |
| 2026-05-07 13:38 | 17.24425 | 78.27002 | 5314 ft | 289 kts | 288° |
| 2026-05-07 13:38 | 17.25016 | 78.24966 | 6160 ft | 292 kts | 288° |
| 2026-05-07 13:39 | 17.25607 | 78.22927 | 6973 ft | 293 kts | 287° |
| 2026-05-07 13:39 | 17.26189 | 78.20921 | 7800 ft | 293 kts | 287° |
| 2026-05-07 13:39 | 17.26790 | 78.18848 | 8654 ft | 293 kts | 287° |
| 2026-05-07 13:39 | 17.27386 | 78.16795 | 9475 ft | 296 kts | 287° |
| 2026-05-07 13:40 | 17.27984 | 78.14733 | 10229 ft | 300 kts | 287° |
| 2026-05-07 13:40 | 17.28610 | 78.12577 | 10519 ft | 321 kts | 287° |
| 2026-05-07 13:40 | 17.29279 | 78.10271 | 10753 ft | 341 kts | 287° |
| 2026-05-07 13:40 | 17.29975 | 78.07866 | 11354 ft | 346 kts | 287° |
| 2026-05-07 13:41 | 17.30674 | 78.05454 | 12154 ft | 347 kts | 287° |
| 2026-05-07 13:41 | 17.31377 | 78.03025 | 12898 ft | 349 kts | 287° |
| 2026-05-07 13:41 | 17.32081 | 78.00588 | 13636 ft | 352 kts | 287° |
| 2026-05-07 13:41 | 17.32793 | 77.98129 | 14266 ft | 355 kts | 287° |
| 2026-05-07 13:42 | 17.33508 | 77.95656 | 14893 ft | 358 kts | 287° |
| 2026-05-07 13:42 | 17.34167 | 77.93376 | 15451 ft | 361 kts | 287° |
| 2026-05-07 13:42 | 17.34843 | 77.91040 | 15999 ft | 364 kts | 287° |
| 2026-05-07 13:42 | 17.35579 | 77.88488 | 16612 ft | 367 kts | 287° |
| 2026-05-07 13:43 | 17.36317 | 77.85928 | 17173 ft | 371 kts | 287° |
| 2026-05-07 13:43 | 17.37065 | 77.83331 | 17728 ft | 374 kts | 287° |
| 2026-05-07 13:43 | 17.37821 | 77.80707 | 18282 ft | 377 kts | 286° |
| 2026-05-07 13:43 | 17.38581 | 77.78068 | 18745 ft | 381 kts | 287° |
| 2026-05-07 13:44 | 17.39345 | 77.75411 | 19251 ft | 383 kts | 287° |
| 2026-05-07 13:44 | 17.40117 | 77.72726 | 19715 ft | 386 kts | 287° |
| 2026-05-07 13:44 | 17.40891 | 77.70036 | 20184 ft | 388 kts | 287° |
| 2026-05-07 13:44 | 17.41675 | 77.67307 | 20654 ft | 391 kts | 287° |
| 2026-05-07 13:45 | 17.42414 | 77.64736 | 21081 ft | 394 kts | 287° |
| 2026-05-07 13:45 | 17.43223 | 77.61920 | 21538 ft | 397 kts | 287° |
| 2026-05-07 13:45 | 17.43901 | 77.59111 | 22005 ft | 399 kts | 281° |
| 2026-05-07 13:45 | 17.44270 | 77.56402 | 22445 ft | 401 kts | 278° |
| 2026-05-07 13:46 | 17.44652 | 77.53326 | 22903 ft | 404 kts | 278° |
| 2026-05-07 13:46 | 17.45026 | 77.50401 | 23347 ft | 406 kts | 278° |
| 2026-05-07 13:46 | 17.45405 | 77.47456 | 23720 ft | 408 kts | 278° |
| 2026-05-07 13:46 | 17.45783 | 77.44519 | 24092 ft | 410 kts | 278° |
| 2026-05-07 13:47 | 17.46163 | 77.41546 | 24433 ft | 412 kts | 278° |
| 2026-05-07 13:47 | 17.46541 | 77.38588 | 24756 ft | 415 kts | 278° |
| 2026-05-07 13:47 | 17.46923 | 77.35594 | 25099 ft | 417 kts | 278° |
| 2026-05-07 13:47 | 17.47307 | 77.32577 | 25432 ft | 419 kts | 278° |
| 2026-05-07 13:48 | 17.47683 | 77.29618 | 25756 ft | 421 kts | 278° |
| 2026-05-07 13:48 | 17.48053 | 77.26701 | 26050 ft | 423 kts | 278° |
| 2026-05-07 13:48 | 17.48442 | 77.23631 | 26371 ft | 425 kts | 278° |
| 2026-05-07 13:48 | 17.48832 | 77.20551 | 26676 ft | 427 kts | 278° |
| 2026-05-07 13:49 | 17.49223 | 77.17455 | 26985 ft | 429 kts | 278° |
| 2026-05-07 13:49 | 17.49615 | 77.14352 | 27280 ft | 431 kts | 278° |
| 2026-05-07 13:49 | 17.50009 | 77.11224 | 27571 ft | 433 kts | 278° |
| 2026-05-07 13:49 | 17.50404 | 77.08086 | 27852 ft | 435 kts | 278° |
| 2026-05-07 13:50 | 17.50800 | 77.04939 | 28143 ft | 437 kts | 278° |
| 2026-05-07 13:50 | 17.51198 | 77.01773 | 28399 ft | 440 kts | 278° |
| 2026-05-07 13:50 | 17.51597 | 76.98589 | 28663 ft | 441 kts | 277° |
| 2026-05-07 13:50 | 17.51998 | 76.95390 | 28921 ft | 443 kts | 277° |
| 2026-05-07 13:51 | 17.52400 | 76.92181 | 29179 ft | 445 kts | 277° |
| 2026-05-07 13:51 | 17.52801 | 76.88971 | 29441 ft | 447 kts | 277° |
| 2026-05-07 13:51 | 17.53201 | 76.85763 | 29671 ft | 449 kts | 277° |
| 2026-05-07 13:51 | 17.53606 | 76.82514 | 29925 ft | 451 kts | 277° |
| 2026-05-07 13:52 | 17.54013 | 76.79246 | 30148 ft | 453 kts | 277° |
| 2026-05-07 13:52 | 17.54416 | 76.76004 | 30370 ft | 454 kts | 278° |
| 2026-05-07 13:52 | 17.55094 | 76.72770 | 30585 ft | 455 kts | 288° |
| 2026-05-07 13:52 | 17.56370 | 76.69745 | 30794 ft | 457 kts | 300° |
| 2026-05-07 13:53 | 17.58218 | 76.67017 | 31030 ft | 459 kts | 311° |
| 2026-05-07 13:53 | 17.60553 | 76.64730 | 31321 ft | 460 kts | 322° |
| 2026-05-07 13:53 | 17.63284 | 76.62957 | 31608 ft | 462 kts | 331° |
| 2026-05-07 13:53 | 17.66135 | 76.61418 | 31910 ft | 461 kts | 331° |
| 2026-05-07 13:54 | 17.68981 | 76.59875 | 32228 ft | 460 kts | 331° |
| 2026-05-07 13:54 | 17.71820 | 76.58331 | 32527 ft | 459 kts | 331° |
| 2026-05-07 13:54 | 17.74652 | 76.56789 | 32812 ft | 458 kts | 331° |
| 2026-05-07 13:54 | 17.77478 | 76.55249 | 33104 ft | 458 kts | 331° |
| 2026-05-07 13:55 | 17.80306 | 76.53706 | 33380 ft | 457 kts | 331° |
| 2026-05-07 13:55 | 17.83122 | 76.52171 | 33656 ft | 456 kts | 330° |
| 2026-05-07 13:55 | 17.85899 | 76.50655 | 33915 ft | 455 kts | 330° |
| 2026-05-07 13:55 | 17.88703 | 76.49125 | 34147 ft | 455 kts | 330° |
| 2026-05-07 13:56 | 17.91513 | 76.47592 | 34375 ft | 454 kts | 330° |
| 2026-05-07 13:56 | 17.94314 | 76.46062 | 34598 ft | 453 kts | 330° |
| 2026-05-07 13:56 | 17.97104 | 76.44538 | 34818 ft | 452 kts | 330° |
| 2026-05-07 13:56 | 17.99893 | 76.43014 | 35015 ft | 451 kts | 330° |
| 2026-05-07 13:57 | 18.02691 | 76.41504 | 35214 ft | 451 kts | 331° |
| 2026-05-07 13:57 | 18.05471 | 76.40042 | 35415 ft | 451 kts | 331° |
| 2026-05-07 13:57 | 18.08275 | 76.38575 | 35613 ft | 450 kts | 331° |
| 2026-05-07 13:57 | 18.11080 | 76.37106 | 35814 ft | 450 kts | 331° |
| 2026-05-07 13:58 | 18.13878 | 76.35636 | 35927 ft | 449 kts | 331° |
| 2026-05-07 13:58 | 18.19453 | 76.32697 | 35930 ft | 447 kts | 331° |
| 2026-05-07 13:59 | 18.25013 | 76.29761 | 35934 ft | 447 kts | 331° |
| 2026-05-07 13:59 | 18.30566 | 76.26826 | 35934 ft | 446 kts | 331° |
| 2026-05-07 14:00 | 18.36119 | 76.23889 | 35931 ft | 447 kts | 331° |
| 2026-05-07 14:00 | 18.41676 | 76.20948 | 35939 ft | 447 kts | 331° |
| 2026-05-07 14:01 | 18.47234 | 76.18005 | 35937 ft | 447 kts | 331° |
| 2026-05-07 14:01 | 18.52794 | 76.15059 | 35933 ft | 447 kts | 331° |
| 2026-05-07 14:02 | 18.58349 | 76.12112 | 35930 ft | 447 kts | 331° |
| 2026-05-07 14:02 | 18.63854 | 76.09190 | 35927 ft | 448 kts | 331° |
| 2026-05-07 14:03 | 18.68308 | 76.06825 | 35928 ft | 448 kts | 331° |
| 2026-05-07 14:03 | 18.73873 | 76.03868 | 35924 ft | 448 kts | 331° |
| 2026-05-07 14:04 | 18.79423 | 76.00915 | 35920 ft | 447 kts | 331° |
| 2026-05-07 14:04 | 18.85001 | 75.97947 | 35919 ft | 447 kts | 331° |
| 2026-05-07 14:05 | 18.90547 | 75.94993 | 35915 ft | 447 kts | 331° |
| 2026-05-07 14:05 | 18.96082 | 75.92042 | 35911 ft | 446 kts | 331° |
| 2026-05-07 14:06 | 19.01633 | 75.89081 | 35909 ft | 445 kts | 330° |
| 2026-05-07 14:06 | 19.07166 | 75.86127 | 35904 ft | 445 kts | 330° |
| 2026-05-07 14:07 | 19.12681 | 75.83181 | 35889 ft | 444 kts | 330° |
| 2026-05-07 14:07 | 19.18126 | 75.80270 | 35883 ft | 443 kts | 330° |
| 2026-05-07 14:08 | 19.23624 | 75.77328 | 35873 ft | 442 kts | 330° |
| 2026-05-07 14:08 | 19.29101 | 75.74395 | 35868 ft | 441 kts | 330° |
| 2026-05-07 14:09 | 19.34579 | 75.71460 | 35861 ft | 441 kts | 330° |
| 2026-05-07 14:09 | 19.40007 | 75.68548 | 35855 ft | 440 kts | 330° |
| 2026-05-07 14:10 | 19.45105 | 75.64992 | 35842 ft | 434 kts | 314° |
| 2026-05-07 14:10 | 19.48766 | 75.60015 | 35863 ft | 432 kts | 297° |
| 2026-05-07 14:11 | 19.50766 | 75.54000 | 35862 ft | 435 kts | 279° |
| 2026-05-07 14:11 | 19.51437 | 75.47645 | 35857 ft | 435 kts | 276° |
| 2026-05-07 14:12 | 19.52085 | 75.41265 | 35853 ft | 435 kts | 276° |
| 2026-05-07 14:12 | 19.52728 | 75.34912 | 35851 ft | 435 kts | 276° |
| 2026-05-07 14:13 | 19.53368 | 75.28529 | 35848 ft | 435 kts | 276° |
| 2026-05-07 14:13 | 19.54006 | 75.22145 | 35847 ft | 436 kts | 276° |
| 2026-05-07 14:14 | 19.54642 | 75.15764 | 35849 ft | 436 kts | 276° |
| 2026-05-07 14:14 | 19.55324 | 75.08887 | 35846 ft | 436 kts | 276° |
| 2026-05-07 14:15 | 19.55956 | 75.02489 | 35827 ft | 436 kts | 276° |
| 2026-05-07 14:15 | 19.56270 | 74.99296 | 35631 ft | 436 kts | 276° |
| 2026-05-07 14:15 | 19.56585 | 74.96098 | 35399 ft | 435 kts | 276° |
| 2026-05-07 14:15 | 19.56898 | 74.92907 | 35164 ft | 435 kts | 276° |
| 2026-05-07 14:16 | 19.57210 | 74.89722 | 34940 ft | 435 kts | 276° |
| 2026-05-07 14:16 | 19.57522 | 74.86534 | 34715 ft | 435 kts | 276° |
| 2026-05-07 14:16 | 19.57833 | 74.83345 | 34490 ft | 435 kts | 276° |
| 2026-05-07 14:16 | 19.58146 | 74.80139 | 34261 ft | 435 kts | 276° |
| 2026-05-07 14:17 | 19.58456 | 74.76952 | 34045 ft | 435 kts | 276° |
| 2026-05-07 14:17 | 19.58763 | 74.73787 | 33792 ft | 436 kts | 277° |
| 2026-05-07 14:17 | 19.59073 | 74.70581 | 33128 ft | 439 kts | 277° |
| 2026-05-07 14:17 | 19.59388 | 74.67326 | 32182 ft | 446 kts | 277° |
| 2026-05-07 14:18 | 19.59703 | 74.64054 | 31383 ft | 448 kts | 277° |
| 2026-05-07 14:18 | 19.60021 | 74.60746 | 30598 ft | 449 kts | 278° |
| 2026-05-07 14:18 | 19.60200 | 74.57456 | 30021 ft | 447 kts | 272° |
| 2026-05-07 14:18 | 19.60007 | 74.54166 | 29411 ft | 445 kts | 266° |
| 2026-05-07 14:19 | 19.59467 | 74.50947 | 28810 ft | 443 kts | 259° |
| 2026-05-07 14:19 | 19.58634 | 74.47806 | 28206 ft | 440 kts | 257° |
| 2026-05-07 14:19 | 19.57783 | 74.44701 | 27616 ft | 436 kts | 257° |
| 2026-05-07 14:19 | 19.56951 | 74.41633 | 27022 ft | 432 kts | 257° |
| 2026-05-07 14:20 | 19.56121 | 74.38569 | 26407 ft | 430 kts | 257° |
| 2026-05-07 14:20 | 19.55576 | 74.36559 | 26012 ft | 428 kts | 257° |
| 2026-05-07 14:20 | 19.54754 | 74.33533 | 25433 ft | 425 kts | 256° |
| 2026-05-07 14:20 | 19.53671 | 74.29556 | 24616 ft | 423 kts | 256° |
| 2026-05-07 14:21 | 19.52856 | 74.26566 | 24041 ft | 421 kts | 256° |
| 2026-05-07 14:21 | 19.52306 | 74.24548 | 23653 ft | 420 kts | 256° |
| 2026-05-07 14:21 | 19.51234 | 74.20616 | 22811 ft | 417 kts | 256° |
| 2026-05-07 14:21 | 19.50434 | 74.17687 | 22230 ft | 412 kts | 256° |
| 2026-05-07 14:22 | 19.49638 | 74.14774 | 21637 ft | 409 kts | 256° |
| 2026-05-07 14:22 | 19.49108 | 74.12837 | 21239 ft | 407 kts | 255° |
| 2026-05-07 14:22 | 19.48324 | 74.09963 | 20651 ft | 405 kts | 255° |
| 2026-05-07 14:22 | 19.47552 | 74.07142 | 20027 ft | 404 kts | 255° |
| 2026-05-07 14:23 | 19.46765 | 74.04265 | 19439 ft | 401 kts | 255° |
| 2026-05-07 14:23 | 19.45999 | 74.01467 | 18868 ft | 399 kts | 254° |
| 2026-05-07 14:23 | 19.45215 | 73.98607 | 18266 ft | 398 kts | 254° |
| 2026-05-07 14:23 | 19.44443 | 73.95793 | 17660 ft | 396 kts | 253° |
| 2026-05-07 14:24 | 19.43686 | 73.93042 | 17090 ft | 392 kts | 253° |
| 2026-05-07 14:24 | 19.42927 | 73.90287 | 16688 ft | 384 kts | 253° |
| 2026-05-07 14:24 | 19.42183 | 73.87586 | 16521 ft | 370 kts | 253° |
| 2026-05-07 14:24 | 19.41594 | 73.84991 | 16393 ft | 356 kts | 265° |
| 2026-05-07 14:25 | 19.41785 | 73.82468 | 16259 ft | 343 kts | 286° |
| 2026-05-07 14:25 | 19.42819 | 73.80261 | 16141 ft | 330 kts | 309° |
| 2026-05-07 14:25 | 19.44512 | 73.78712 | 16026 ft | 317 kts | 333° |
| 2026-05-07 14:25 | 19.46558 | 73.78049 | 15905 ft | 303 kts | 358° |
| 2026-05-07 14:26 | 19.48574 | 73.78342 | 15798 ft | 288 kts | 23° |
| 2026-05-07 14:26 | 19.50201 | 73.79477 | 15539 ft | 278 kts | 50° |
| 2026-05-07 14:26 | 19.51138 | 73.81232 | 15302 ft | 276 kts | 77° |
| 2026-05-07 14:26 | 19.51247 | 73.83254 | 15079 ft | 277 kts | 97° |
| 2026-05-07 14:27 | 19.51044 | 73.85280 | 14844 ft | 275 kts | 91° |
| 2026-05-07 14:27 | 19.51190 | 73.87277 | 14613 ft | 273 kts | 82° |
| 2026-05-07 14:27 | 19.51579 | 73.89237 | 14383 ft | 271 kts | 77° |
| 2026-05-07 14:27 | 19.52077 | 73.91167 | 14153 ft | 271 kts | 75° |
| 2026-05-07 14:28 | 19.52608 | 73.93080 | 13921 ft | 271 kts | 75° |
| 2026-05-07 14:28 | 19.53143 | 73.94987 | 13702 ft | 269 kts | 75° |
| 2026-05-07 14:28 | 19.53662 | 73.96883 | 13450 ft | 267 kts | 78° |
| 2026-05-07 14:28 | 19.53733 | 73.98828 | 13188 ft | 265 kts | 102° |
| 2026-05-07 14:29 | 19.53042 | 74.00621 | 12943 ft | 265 kts | 126° |
| 2026-05-07 14:29 | 19.51784 | 74.01896 | 12710 ft | 266 kts | 149° |
| 2026-05-07 14:29 | 19.50053 | 74.02555 | 12464 ft | 266 kts | 173° |
| 2026-05-07 14:29 | 19.48217 | 74.02389 | 12217 ft | 268 kts | 198° |
| 2026-05-07 14:30 | 19.46600 | 74.01416 | 11978 ft | 270 kts | 223° |
| 2026-05-07 14:30 | 19.45527 | 73.99808 | 11890 ft | 270 kts | 248° |
| 2026-05-07 14:30 | 19.44992 | 73.97891 | 11881 ft | 272 kts | 254° |
| 2026-05-07 14:30 | 19.44481 | 73.95964 | 11886 ft | 272 kts | 254° |
| 2026-05-07 14:31 | 19.43961 | 73.94043 | 11891 ft | 271 kts | 253° |
| 2026-05-07 14:31 | 19.43451 | 73.92181 | 11887 ft | 272 kts | 253° |
| 2026-05-07 14:31 | 19.42924 | 73.90258 | 11885 ft | 272 kts | 253° |
| 2026-05-07 14:31 | 19.42336 | 73.88339 | 11891 ft | 285 kts | 244° |
| 2026-05-07 14:32 | 19.41388 | 73.86362 | 11884 ft | 318 kts | 241° |
| 2026-05-07 14:32 | 19.40307 | 73.84253 | 11882 ft | 341 kts | 240° |
| 2026-05-07 14:32 | 19.39155 | 73.82020 | 11854 ft | 347 kts | 241° |
| 2026-05-07 14:32 | 19.38004 | 73.79776 | 11675 ft | 347 kts | 241° |
| 2026-05-07 14:33 | 19.36885 | 73.77582 | 11235 ft | 349 kts | 241° |
| 2026-05-07 14:33 | 19.35731 | 73.75310 | 10711 ft | 350 kts | 242° |
| 2026-05-07 14:33 | 19.34584 | 73.73047 | 10300 ft | 346 kts | 242° |
| 2026-05-07 14:33 | 19.33468 | 73.70846 | 10175 ft | 332 kts | 242° |
| 2026-05-07 14:34 | 19.32399 | 73.68735 | 10059 ft | 319 kts | 242° |
| 2026-05-07 14:34 | 19.31374 | 73.66706 | 9950 ft | 306 kts | 242° |
| 2026-05-07 14:34 | 19.30387 | 73.64756 | 9773 ft | 297 kts | 242° |
| 2026-05-07 14:34 | 19.29411 | 73.62842 | 9419 ft | 294 kts | 242° |
| 2026-05-07 14:35 | 19.28433 | 73.60951 | 9029 ft | 292 kts | 242° |
| 2026-05-07 14:35 | 19.27453 | 73.59081 | 8664 ft | 290 kts | 242° |
| 2026-05-07 14:35 | 19.26475 | 73.57229 | 8270 ft | 288 kts | 242° |
| 2026-05-07 14:35 | 19.25513 | 73.55407 | 7909 ft | 286 kts | 242° |
| 2026-05-07 14:36 | 19.24542 | 73.53575 | 7531 ft | 285 kts | 242° |
| 2026-05-07 14:36 | 19.23570 | 73.51754 | 7176 ft | 283 kts | 242° |
| 2026-05-07 14:36 | 19.22615 | 73.49982 | 6801 ft | 282 kts | 242° |
| 2026-05-07 14:36 | 19.21643 | 73.48193 | 6456 ft | 280 kts | 242° |
| 2026-05-07 14:37 | 19.20677 | 73.46426 | 6174 ft | 275 kts | 242° |
| 2026-05-07 14:37 | 19.18836 | 73.43077 | 5971 ft | 252 kts | 242° |
| 2026-05-07 14:37 | 19.17966 | 73.41505 | 5768 ft | 246 kts | 242° |
| 2026-05-07 14:38 | 19.17102 | 73.39948 | 5471 ft | 245 kts | 242° |
| 2026-05-07 14:38 | 19.16244 | 73.38391 | 5153 ft | 245 kts | 242° |
| 2026-05-07 14:38 | 19.15391 | 73.36835 | 4837 ft | 244 kts | 242° |
| 2026-05-07 14:38 | 19.14566 | 73.35326 | 4560 ft | 244 kts | 242° |
| 2026-05-07 14:39 | 19.13725 | 73.33775 | 4271 ft | 243 kts | 242° |
| 2026-05-07 14:39 | 19.12879 | 73.32235 | 3981 ft | 242 kts | 236° |
| 2026-05-07 14:39 | 19.11579 | 73.31182 | 3843 ft | 239 kts | 208° |
| 2026-05-07 14:39 | 19.10248 | 73.30099 | 3794 ft | 243 kts | 237° |
| 2026-05-07 14:40 | 19.09726 | 73.28457 | 3813 ft | 238 kts | 273° |
| 2026-05-07 14:40 | 19.10136 | 73.26792 | 3831 ft | 238 kts | 291° |
| 2026-05-07 14:40 | 19.10329 | 73.25095 | 3839 ft | 239 kts | 265° |
| 2026-05-07 14:40 | 19.10040 | 73.23336 | 3831 ft | 240 kts | 258° |
| 2026-05-07 14:41 | 19.09645 | 73.21655 | 3810 ft | 240 kts | 260° |
| 2026-05-07 14:41 | 19.09409 | 73.19897 | 3677 ft | 235 kts | 267° |
| 2026-05-07 14:41 | 19.09338 | 73.18190 | 3671 ft | 239 kts | 270° |
| 2026-05-07 14:41 | 19.09314 | 73.16434 | 3667 ft | 239 kts | 270° |
| 2026-05-07 14:42 | 19.09287 | 73.14664 | 3665 ft | 240 kts | 271° |
| 2026-05-07 14:42 | 19.09261 | 73.12895 | 3657 ft | 240 kts | 271° |
| 2026-05-07 14:42 | 19.09235 | 73.11132 | 3664 ft | 239 kts | 271° |
| 2026-05-07 14:42 | 19.09209 | 73.09435 | 3652 ft | 230 kts | 271° |
| 2026-05-07 14:43 | 19.09184 | 73.07750 | 3547 ft | 221 kts | 271° |
| 2026-05-07 14:43 | 19.09160 | 73.06129 | 3280 ft | 220 kts | 271° |
| 2026-05-07 14:43 | 19.09137 | 73.04554 | 2994 ft | 213 kts | 271° |
| 2026-05-07 14:43 | 19.09114 | 73.03004 | 2722 ft | 206 kts | 271° |
| 2026-05-07 14:44 | 19.09093 | 73.01567 | 2518 ft | 194 kts | 271° |
| 2026-05-07 14:44 | 19.09072 | 73.00185 | 2259 ft | 183 kts | 271° |
| 2026-05-07 14:44 | 19.09053 | 72.98881 | 2024 ft | 172 kts | 271° |
| 2026-05-07 14:44 | 19.09034 | 72.97675 | 1817 ft | 156 kts | 271° |
| 2026-05-07 14:45 | 19.09018 | 72.96580 | 1617 ft | 142 kts | 270° |
| 2026-05-07 14:45 | 19.09004 | 72.95577 | 1454 ft | 136 kts | 272° |
| 2026-05-07 14:45 | 19.08989 | 72.94572 | 1268 ft | 136 kts | 270° |
| 2026-05-07 14:45 | 19.08975 | 72.93575 | 1091 ft | 136 kts | 270° |
| 2026-05-07 14:46 | 19.08960 | 72.92584 | 932 ft | 137 kts | 271° |
| 2026-05-07 14:46 | 19.08947 | 72.91567 | 742 ft | 136 kts | 271° |
| 2026-05-07 14:46 | 19.08927 | 72.90562 | 528 ft | 137 kts | 272° |
| 2026-05-07 14:46 | 19.08922 | 72.89564 | 446 ft | 134 kts | 271° |
| 2026-05-07 14:47 | 19.08899 | 72.88614 | 247 ft | 131 kts | 272° |
| 2026-05-07 14:47 | 19.08876 | 72.87629 | 107 ft | 134 kts | 272° |
| 2026-05-07 14:47 | 19.08872 | 72.86692 | 50 ft | 115 kts | 269° |
| 2026-05-07 14:47 | 19.08863 | 72.86016 | 47 ft | 71 kts | 268° |
| 2026-05-07 14:48 | 19.08901 | 72.85602 | 46 ft | 30 kts | 294° |
| 2026-05-07 14:48 | 19.08940 | 72.85512 | 49 ft | 0 kts | 294° |
| 2026-05-07 14:49 | 19.08949 | 72.85491 | 49 ft | 7 kts | 294° |
| 2026-05-07 14:50 | 19.08986 | 72.85421 | 49 ft | 15 kts | 314° |
| 2026-05-07 14:50 | 19.09070 | 72.85400 | 49 ft | 11 kts | 344° |
| 2026-05-07 14:50 | 19.09091 | 72.85318 | 49 ft | 15 kts | 268° |
| 2026-05-07 14:50 | 19.09090 | 72.85268 | 49 ft | 2 kts | 269° |
| 2026-05-07 14:51 | 19.09090 | 72.85252 | 49 ft | 0 kts | 270° |
| 2026-05-07 14:51 | 19.09096 | 72.85242 | 49 ft | 0 kts | 306° |
| 2026-05-07 14:51 | 19.09097 | 72.85241 | 49 ft | 1 kts | 309° |
| 2026-05-07 14:51 | 19.09109 | 72.85227 | 47 ft | 4 kts | 301° |
| 2026-05-07 14:52 | 19.09127 | 72.85203 | 49 ft | 4 kts | 339° |
| 2026-05-07 14:52 | 19.09137 | 72.85203 | 49 ft | 2 kts | 2° |
| 2026-05-07 14:52 | 19.09148 | 72.85203 | 46 ft | 1 kts | 359° |
| 2026-05-07 14:52 | 19.09155 | 72.85203 | 47 ft | 2 kts | 359° |
| 2026-05-07 14:53 | 19.09156 | 72.85203 | 47 ft | 0 kts | 359° |